createdAt,value
2022-09-21T00:01:39.436Z,15.83
2022-09-21T00:04:08.009Z,15.79
2022-09-21T00:06:37.612Z,15.79
2022-09-21T00:09:09.514Z,15.76
2022-09-21T00:11:38.241Z,15.75
2022-09-21T00:14:08.834Z,15.74
2022-09-21T00:16:37.167Z,15.71
2022-09-21T00:19:06.884Z,15.70
2022-09-21T00:21:35.737Z,15.67
2022-09-21T00:24:04.484Z,15.65
2022-09-21T00:26:34.208Z,15.64
2022-09-21T00:29:03.977Z,15.62
2022-09-21T00:31:33.456Z,15.60
2022-09-21T00:34:03.845Z,15.58
2022-09-21T00:36:32.231Z,15.59
2022-09-21T00:39:02.209Z,15.59
2022-09-21T00:41:32.346Z,15.59
2022-09-21T00:44:41.187Z,15.59
2022-09-21T00:47:14.256Z,15.65
2022-09-21T00:49:44.221Z,15.67
2022-09-21T00:52:14.930Z,15.67
2022-09-21T00:54:46.656Z,15.69
2022-09-21T00:57:16.822Z,15.68
2022-09-21T00:59:47.131Z,15.69
2022-09-21T01:02:15.905Z,15.70
2022-09-21T01:04:44.747Z,15.75
2022-09-21T01:07:18.650Z,15.78
2022-09-21T01:09:51.432Z,15.79
2022-09-21T01:12:36.010Z,15.79
2022-09-21T01:15:21.029Z,15.81
2022-09-21T01:17:58.537Z,15.81
2022-09-21T01:21:08.175Z,15.83
2022-09-21T01:23:50.162Z,15.82
2022-09-21T01:26:27.524Z,15.83
2022-09-21T01:29:19.812Z,15.84
2022-09-21T01:31:52.883Z,15.84
2022-09-21T01:34:29.541Z,15.87
2022-09-21T01:37:03.167Z,15.87
2022-09-21T01:39:35.064Z,15.86
2022-09-21T01:42:07.758Z,15.87
2022-09-21T01:44:41.315Z,15.84
2022-09-21T01:47:14.389Z,15.83
2022-09-21T01:49:47.430Z,15.81
2022-09-21T01:52:19.979Z,15.83
2022-09-21T01:54:53.366Z,15.81
2022-09-21T01:57:29.476Z,15.80
2022-09-21T02:00:01.574Z,15.78
2022-09-21T02:02:38.250Z,15.78
2022-09-21T02:05:07.628Z,15.77
2022-09-21T02:07:37.141Z,15.78
2022-09-21T02:10:07.060Z,15.76
2022-09-21T02:12:35.339Z,15.77
2022-09-21T02:15:05.638Z,15.75
2022-09-21T02:17:42.561Z,15.77
2022-09-21T02:20:20.749Z,15.77
2022-09-21T02:23:04.112Z,15.73
2022-09-21T02:25:42.858Z,15.71
2022-09-21T02:28:21.239Z,15.71
2022-09-21T02:30:57.429Z,15.70
2022-09-21T02:33:32.567Z,15.68
2022-09-21T02:36:09.579Z,15.66
2022-09-21T02:38:46.291Z,15.64
2022-09-21T02:41:20.059Z,15.62
2022-09-21T02:43:52.514Z,15.64
2022-09-21T02:46:28.035Z,15.64
2022-09-21T02:49:01.111Z,15.62
2022-09-21T02:51:32.868Z,15.60
2022-09-21T02:54:05.010Z,15.59
2022-09-21T02:56:33.721Z,15.60
2022-09-21T02:59:06.303Z,15.55
2022-09-21T03:01:36.405Z,15.48
2022-09-21T03:04:04.707Z,15.45
2022-09-21T03:06:33.727Z,15.40
2022-09-21T03:09:02.065Z,15.36
2022-09-21T03:11:30.505Z,15.31
2022-09-21T03:13:59.545Z,15.29
2022-09-21T03:16:29.189Z,15.27
2022-09-21T03:18:58.743Z,15.25
2022-09-21T03:21:26.967Z,15.21
2022-09-21T03:23:55.244Z,15.19
2022-09-21T03:26:23.545Z,15.21
2022-09-21T03:28:52.306Z,15.21
2022-09-21T03:31:20.439Z,15.21
2022-09-21T03:33:48.620Z,15.22
2022-09-21T03:36:18.299Z,15.22
2022-09-21T03:38:46.387Z,15.17
2022-09-21T03:41:15.390Z,15.13
2022-09-21T03:43:43.641Z,15.09
2022-09-21T03:46:11.923Z,15.08
2022-09-21T03:48:42.598Z,15.06
2022-09-21T03:51:10.690Z,15.01
2022-09-21T03:53:40.130Z,14.96
2022-09-21T03:56:08.331Z,14.91
2022-09-21T03:58:36.417Z,14.89
2022-09-21T04:01:05.276Z,14.87
2022-09-21T04:03:33.564Z,14.84
2022-09-21T04:06:03.536Z,14.80
2022-09-21T04:08:33.090Z,14.79
2022-09-21T04:11:02.684Z,14.77
2022-09-21T04:13:30.904Z,14.75
2022-09-21T04:15:59.391Z,14.74
2022-09-21T04:18:27.793Z,14.75
2022-09-21T04:20:55.963Z,14.76
2022-09-21T04:23:24.209Z,14.74
2022-09-21T04:25:52.617Z,14.69
2022-09-21T04:28:22.810Z,14.64
2022-09-21T04:30:54.198Z,14.62
2022-09-21T04:33:22.565Z,14.59
2022-09-21T04:35:56.649Z,14.57
2022-09-21T04:38:24.879Z,14.55
2022-09-21T04:40:57.410Z,14.56
2022-09-21T04:43:27.458Z,14.57
2022-09-21T04:45:55.721Z,14.58
2022-09-21T04:48:23.932Z,14.63
2022-09-21T04:50:52.330Z,14.65
2022-09-21T04:53:20.481Z,14.65
2022-09-21T04:55:49.037Z,14.68
2022-09-21T04:58:20.204Z,14.73
2022-09-21T05:00:52.847Z,14.75
2022-09-21T05:03:21.313Z,14.75
2022-09-21T05:05:50.051Z,14.75
2022-09-21T05:08:38.772Z,14.77
2022-09-21T05:11:06.166Z,14.76
2022-09-21T05:13:34.213Z,14.77
2022-09-21T05:16:03.811Z,14.78
2022-09-21T05:18:32.215Z,14.80
2022-09-21T05:21:01.753Z,14.81
2022-09-21T05:23:31.426Z,14.80
2022-09-21T05:26:00.740Z,14.81
2022-09-21T05:28:29.453Z,14.80
2022-09-21T05:31:17.124Z,14.84
2022-09-21T05:33:53.192Z,14.85
2022-09-21T05:36:40.488Z,14.83
2022-09-21T05:39:09.352Z,14.85
2022-09-21T05:41:38.862Z,14.85
2022-09-21T05:44:07.895Z,14.86
2022-09-21T05:46:40.841Z,14.92
2022-09-21T05:49:20.141Z,14.90
2022-09-21T05:51:58.320Z,14.88
2022-09-21T05:54:40.768Z,14.88
2022-09-21T05:57:17.783Z,14.93
2022-09-21T05:59:58.661Z,14.93
2022-09-21T06:02:45.614Z,14.93
2022-09-21T06:05:16.874Z,14.94
2022-09-21T06:07:44.912Z,14.93
2022-09-21T06:10:15.004Z,14.90
2022-09-21T06:12:43.688Z,14.85
2022-09-21T06:15:13.903Z,14.84
2022-09-21T06:17:42.082Z,14.80
2022-09-21T06:20:11.431Z,14.82
2022-09-21T06:22:43.295Z,14.81
2022-09-21T06:25:11.742Z,14.81
2022-09-21T06:27:40.034Z,14.82
2022-09-21T06:30:09.188Z,14.85
2022-09-21T06:32:37.260Z,14.88
2022-09-21T06:35:06.051Z,14.92
2022-09-21T06:37:34.236Z,14.94
2022-09-21T06:40:04.167Z,14.99
2022-09-21T06:42:32.436Z,15.04
2022-09-21T06:45:00.644Z,15.09
2022-09-21T06:47:28.824Z,15.16
2022-09-21T06:49:57.100Z,15.22
2022-09-21T06:52:25.341Z,15.26
2022-09-21T06:54:53.551Z,15.31
2022-09-21T06:57:24.136Z,15.34
2022-09-21T06:59:52.185Z,15.39
2022-09-21T07:02:20.337Z,15.40
2022-09-21T07:04:48.467Z,15.47
2022-09-21T07:07:16.674Z,15.49
2022-09-21T07:12:35.380Z,15.58
2022-09-21T07:15:03.514Z,15.63
2022-09-21T07:17:36.177Z,15.65
2022-09-21T07:20:06.034Z,15.71
2022-09-21T07:22:34.315Z,15.76
2022-09-21T07:25:02.600Z,15.83
2022-09-21T07:27:31.975Z,15.88
2022-09-21T07:30:01.470Z,15.95
2022-09-21T07:32:31.587Z,16.00
2022-09-21T07:34:59.801Z,16.08
2022-09-21T07:37:28.485Z,16.10
2022-09-21T07:39:56.649Z,16.13
2022-09-21T07:42:26.575Z,16.15
2022-09-21T07:45:03.926Z,16.18
2022-09-21T07:47:34.158Z,16.25
2022-09-21T07:50:02.276Z,16.31
2022-09-21T07:52:30.418Z,16.34
2022-09-21T07:54:58.507Z,16.36
2022-09-21T07:57:43.990Z,16.40
2022-09-21T08:00:13.487Z,16.45
2022-09-21T08:02:47.495Z,16.47
2022-09-21T08:05:16.346Z,16.51
2022-09-21T08:07:44.547Z,16.54
2022-09-21T08:10:13.157Z,16.56
2022-09-21T08:12:41.526Z,16.59
2022-09-21T08:15:30.545Z,16.59
2022-09-21T08:18:02.997Z,16.63
2022-09-21T08:20:30.909Z,16.60
2022-09-21T08:23:00.173Z,16.68
2022-09-21T08:25:28.645Z,16.70
2022-09-21T08:28:00.760Z,16.71
2022-09-21T08:30:31.238Z,16.74
2022-09-21T08:33:00.949Z,16.78
2022-09-21T08:35:29.058Z,16.81
2022-09-21T08:37:57.311Z,16.86
2022-09-21T08:40:25.766Z,16.93
2022-09-21T08:43:00.372Z,16.99
2022-09-21T08:45:35.661Z,17.07
2022-09-21T08:48:11.391Z,17.15
2022-09-21T08:50:46.740Z,17.21
2022-09-21T08:53:18.865Z,17.31
2022-09-21T08:55:47.091Z,17.42
2022-09-21T08:58:24.144Z,17.55
2022-09-21T09:01:07.383Z,17.61
2022-09-21T09:04:04.359Z,17.72
2022-09-21T09:06:43.503Z,17.71
2022-09-21T09:09:25.467Z,17.72
2022-09-21T09:12:11.256Z,17.68
2022-09-21T09:15:06.889Z,17.65
2022-09-21T09:17:46.823Z,17.60
2022-09-21T09:20:20.213Z,17.67
2022-09-21T09:22:54.921Z,17.75
2022-09-21T09:25:25.093Z,17.75
2022-09-21T09:27:56.979Z,17.80
2022-09-21T09:30:27.503Z,17.84
2022-09-21T09:33:01.858Z,17.89
2022-09-21T09:35:35.436Z,17.95
2022-09-21T09:38:12.128Z,18.05
2022-09-21T09:40:54.201Z,18.06
2022-09-21T09:43:35.643Z,18.10
2022-09-21T09:46:13.739Z,18.12
2022-09-21T09:49:08.268Z,18.11
2022-09-21T09:51:40.028Z,18.16
2022-09-21T09:54:15.070Z,18.22
2022-09-21T09:56:43.314Z,18.27
2022-09-21T09:59:20.579Z,18.32
2022-09-21T10:02:00.777Z,18.36
2022-09-21T10:04:29.417Z,18.37
2022-09-21T10:06:59.092Z,18.42
2022-09-21T10:09:29.660Z,18.39
2022-09-21T10:12:01.249Z,18.40
2022-09-21T10:14:34.141Z,18.41
2022-09-21T10:17:07.113Z,18.41
2022-09-21T10:19:35.634Z,18.41
2022-09-21T10:22:06.881Z,18.33
2022-09-21T10:24:39.052Z,18.35
2022-09-21T10:27:12.855Z,18.36
2022-09-21T10:29:43.807Z,18.38
2022-09-21T10:32:26.626Z,18.43
2022-09-21T10:35:18.177Z,18.41
2022-09-21T10:37:53.871Z,18.46
2022-09-21T10:40:28.099Z,18.49
2022-09-21T10:42:58.720Z,18.48
2022-09-21T10:45:29.138Z,18.46
2022-09-21T10:47:59.931Z,18.43
2022-09-21T10:50:31.514Z,18.39
2022-09-21T10:53:12.091Z,18.36
2022-09-21T10:55:52.608Z,18.25
2022-09-21T10:58:27.024Z,18.25
2022-09-21T11:00:56.647Z,18.23
2022-09-21T11:03:52.603Z,18.19
2022-09-21T11:06:28.255Z,18.21
2022-09-21T11:09:02.373Z,18.21
2022-09-21T11:11:39.658Z,18.24
2022-09-21T11:14:19.275Z,18.25
2022-09-21T11:16:54.637Z,18.28
2022-09-21T11:19:32.164Z,18.42
2022-09-21T11:22:09.698Z,18.46
2022-09-21T11:24:48.217Z,18.61
2022-09-21T11:27:21.371Z,18.78
2022-09-21T11:29:59.565Z,18.80
2022-09-21T11:32:53.383Z,18.86
2022-09-21T11:35:35.175Z,18.95
2022-09-21T11:38:13.063Z,19.02
2022-09-21T11:41:00.432Z,19.00
2022-09-21T11:43:55.596Z,19.10
2022-09-21T11:46:31.320Z,19.29
2022-09-21T11:49:28.109Z,19.43
2022-09-21T11:52:11.769Z,19.42
2022-09-21T11:55:06.310Z,19.47
2022-09-21T11:57:44.763Z,19.63
2022-09-21T12:00:17.683Z,19.74
2022-09-21T12:03:33.753Z,19.70
2022-09-21T12:06:29.140Z,19.58
2022-09-21T12:09:27.589Z,19.50
2022-09-21T12:12:03.557Z,19.50
2022-09-21T12:14:39.207Z,19.46
2022-09-21T12:17:15.031Z,19.54
2022-09-21T12:19:51.187Z,19.57
2022-09-21T12:22:23.987Z,19.64
2022-09-21T12:24:55.969Z,19.75
2022-09-21T12:27:29.509Z,19.76
2022-09-21T12:30:05.046Z,19.75
2022-09-21T12:32:49.542Z,19.68
2022-09-21T12:35:22.209Z,19.59
2022-09-21T12:37:58.883Z,19.46
2022-09-21T12:40:37.605Z,19.41
2022-09-21T12:43:17.529Z,19.42
2022-09-21T12:45:53.513Z,19.54
2022-09-21T12:48:31.152Z,19.68
2022-09-21T12:51:06.437Z,19.70
2022-09-21T12:53:37.900Z,19.72
2022-09-21T12:56:09.934Z,19.65
2022-09-21T12:59:01.564Z,19.71
2022-09-21T13:01:38.417Z,19.83
2022-09-21T13:04:23.447Z,19.90
2022-09-21T13:07:30.219Z,19.93
2022-09-21T13:09:59.292Z,20.10
2022-09-21T13:12:34.124Z,20.21
2022-09-21T13:15:13.494Z,20.25
2022-09-21T13:17:43.252Z,20.13
2022-09-21T13:20:19.550Z,20.02
2022-09-21T13:22:49.295Z,19.94
2022-09-21T13:25:24.044Z,19.84
2022-09-21T13:28:05.236Z,19.76
2022-09-21T13:30:37.570Z,19.68
2022-09-21T13:33:31.590Z,19.63
2022-09-21T13:36:19.757Z,19.61
2022-09-21T13:39:17.173Z,19.56
2022-09-21T13:42:02.380Z,19.52
2022-09-21T13:44:42.152Z,19.49
2022-09-21T13:47:12.095Z,19.53
2022-09-21T13:49:46.376Z,19.65
2022-09-21T13:52:28.670Z,19.77
2022-09-21T13:55:00.768Z,19.79
2022-09-21T13:57:37.062Z,19.72
2022-09-21T14:00:35.935Z,19.62
2022-09-21T14:03:08.158Z,19.57
2022-09-21T14:05:42.974Z,19.52
2022-09-21T14:08:23.332Z,19.49
2022-09-21T14:10:55.388Z,19.49
2022-09-21T14:13:32.674Z,19.42
2022-09-21T14:16:38.269Z,19.38
2022-09-21T14:19:45.087Z,19.36
2022-09-21T14:22:43.145Z,19.42
2022-09-21T14:25:28.169Z,19.42
2022-09-21T14:28:01.889Z,19.41
2022-09-21T14:30:35.609Z,19.47
2022-09-21T14:33:25.574Z,19.53
2022-09-21T14:35:55.779Z,19.71
2022-09-21T14:38:28.466Z,19.82
2022-09-21T14:41:01.198Z,19.87
2022-09-21T14:43:33.976Z,19.87
2022-09-21T14:46:36.286Z,19.84
2022-09-21T14:49:23.240Z,19.88
2022-09-21T14:52:04.507Z,19.94
2022-09-21T14:54:50.580Z,19.92
2022-09-21T14:57:50.900Z,19.86
2022-09-21T15:00:23.541Z,19.90
2022-09-21T15:03:05.800Z,19.89
2022-09-21T15:05:37.621Z,19.96
2022-09-21T15:08:41.249Z,19.98
2022-09-21T15:11:18.896Z,20.02
2022-09-21T15:14:11.376Z,20.03
2022-09-21T15:16:43.443Z,20.07
2022-09-21T15:19:23.969Z,20.05
2022-09-21T15:21:54.033Z,20.04
2022-09-21T15:24:26.845Z,20.06
2022-09-21T15:27:05.840Z,20.02
2022-09-21T15:29:35.197Z,20.02
2022-09-21T15:32:04.055Z,20.01
2022-09-21T15:34:32.377Z,19.96
2022-09-21T15:37:16.561Z,19.92
2022-09-21T15:39:45.120Z,19.94
2022-09-21T15:42:23.132Z,19.88
2022-09-21T15:45:06.051Z,19.84
2022-09-21T15:47:34.764Z,19.81
2022-09-21T15:50:03.321Z,19.78
2022-09-21T15:52:37.997Z,19.77
2022-09-21T15:55:13.198Z,19.76
2022-09-21T15:57:44.350Z,19.77
2022-09-21T16:00:22.263Z,19.71
2022-09-21T16:03:04.936Z,19.67
2022-09-21T16:05:47.256Z,19.66
2022-09-21T16:08:28.424Z,19.64
2022-09-21T16:11:14.232Z,19.60
2022-09-21T16:14:02.674Z,19.55
2022-09-21T16:16:30.904Z,19.46
2022-09-21T16:19:00.733Z,19.40
2022-09-21T16:21:32.934Z,19.34
2022-09-21T16:24:12.568Z,19.27
2022-09-21T16:26:42.735Z,19.29
2022-09-21T16:29:23.672Z,19.24
2022-09-21T16:31:52.063Z,19.28
2022-09-21T16:34:33.318Z,19.23
2022-09-21T16:37:04.309Z,19.24
2022-09-21T16:39:32.491Z,19.19
2022-09-21T16:42:05.635Z,19.19
2022-09-21T16:44:36.854Z,19.11
2022-09-21T16:47:05.454Z,19.09
2022-09-21T16:49:35.895Z,19.07
2022-09-21T16:52:04.684Z,18.99
2022-09-21T16:54:32.920Z,18.88
2022-09-21T16:57:02.867Z,18.83
2022-09-21T16:59:33.273Z,18.83
2022-09-21T17:02:05.167Z,18.78
2022-09-21T17:04:35.362Z,18.76
2022-09-21T17:07:05.147Z,18.73
2022-09-21T17:09:38.277Z,18.71
2022-09-21T17:12:08.668Z,18.71
2022-09-21T17:14:40.910Z,18.72
2022-09-21T17:17:18.925Z,18.70
2022-09-21T17:19:50.035Z,18.69
2022-09-21T17:22:18.709Z,18.70
2022-09-21T17:24:51.226Z,18.71
2022-09-21T17:27:22.785Z,18.68
2022-09-21T17:29:53.969Z,18.68
2022-09-21T17:32:25.010Z,18.67
2022-09-21T17:34:59.041Z,18.63
2022-09-21T17:37:27.423Z,18.58
2022-09-21T17:39:55.602Z,18.56
2022-09-21T17:42:25.912Z,18.48
2022-09-21T17:45:12.807Z,18.44
2022-09-21T17:47:43.210Z,18.41
2022-09-21T17:50:23.243Z,18.33
2022-09-21T17:53:09.558Z,18.33
2022-09-21T17:55:38.774Z,18.30
2022-09-21T17:58:34.518Z,18.27
2022-09-21T18:01:08.527Z,18.22
2022-09-21T18:03:41.210Z,18.14
2022-09-21T18:06:10.908Z,18.08
2022-09-21T18:08:40.876Z,18.07
2022-09-21T18:11:22.469Z,18.04
2022-09-21T18:13:55.226Z,17.99
2022-09-21T18:16:28.934Z,17.99
2022-09-21T18:19:05.493Z,17.97
2022-09-21T18:21:40.850Z,17.91
2022-09-21T18:24:19.637Z,17.84
2022-09-21T18:26:49.135Z,17.82
2022-09-21T18:29:40.660Z,17.79
2022-09-21T18:32:34.398Z,17.74
2022-09-21T18:35:17.003Z,17.68
2022-09-21T18:38:00.180Z,17.67
2022-09-21T18:40:36.568Z,17.61
2022-09-21T18:43:22.795Z,17.58
2022-09-21T18:45:56.774Z,17.58
2022-09-21T18:48:37.256Z,17.59
2022-09-21T18:51:16.458Z,17.53
2022-09-21T18:53:48.704Z,17.51
2022-09-21T18:56:17.580Z,17.48
2022-09-21T18:58:46.689Z,17.47
2022-09-21T19:01:17.104Z,17.45
2022-09-21T19:03:46.204Z,17.42
2022-09-21T19:06:27.511Z,17.41
2022-09-21T19:09:02.980Z,17.38
2022-09-21T19:11:38.535Z,17.34
2022-09-21T19:14:14.503Z,17.31
2022-09-21T19:16:53.500Z,17.31
2022-09-21T19:19:32.708Z,17.30
2022-09-21T19:22:13.806Z,17.28
2022-09-21T19:24:50.516Z,17.27
2022-09-21T19:27:29.479Z,17.26
2022-09-21T19:30:06.741Z,17.31
2022-09-21T19:32:39.760Z,17.29
2022-09-21T19:35:17.869Z,17.25
2022-09-21T19:37:48.563Z,17.22
2022-09-21T19:40:18.802Z,17.24
2022-09-21T19:43:00.310Z,17.22
2022-09-21T19:45:34.899Z,17.18
2022-09-21T19:48:06.965Z,17.16
2022-09-21T19:50:44.375Z,17.16
2022-09-21T19:53:32.645Z,17.16
2022-09-21T19:56:19.799Z,17.16
2022-09-21T19:59:06.123Z,17.25
2022-09-21T20:01:40.263Z,17.26
2022-09-21T20:04:08.792Z,17.23
2022-09-21T20:06:43.634Z,17.23
2022-09-21T20:09:20.180Z,17.22
2022-09-21T20:11:56.546Z,17.22
2022-09-21T20:14:34.065Z,17.22
2022-09-21T20:17:08.720Z,17.18
2022-09-21T20:19:48.326Z,17.14
2022-09-21T20:22:18.637Z,17.06
2022-09-21T20:24:55.314Z,17.04
2022-09-21T20:27:34.782Z,17.15
2022-09-21T20:30:03.375Z,17.14
2022-09-21T20:32:31.811Z,17.16
2022-09-21T20:34:59.920Z,17.22
2022-09-21T20:37:30.489Z,17.19
2022-09-21T20:40:00.952Z,17.21
2022-09-21T20:42:29.051Z,17.24
2022-09-21T20:44:57.185Z,17.24
2022-09-21T20:47:25.413Z,17.24
2022-09-21T20:49:53.541Z,17.26
2022-09-21T20:52:21.743Z,17.25
2022-09-21T20:54:50.544Z,17.27
2022-09-21T20:57:20.423Z,17.27
2022-09-21T20:59:48.672Z,17.30
2022-09-21T21:02:17.866Z,17.32
2022-09-21T21:04:45.949Z,17.33
2022-09-21T21:07:14.050Z,17.34
2022-09-21T21:09:42.269Z,17.36
2022-09-21T21:12:10.674Z,17.38
2022-09-21T21:14:40.301Z,17.41
2022-09-21T21:17:08.550Z,17.43
2022-09-21T21:19:36.632Z,17.43
2022-09-21T21:22:05.373Z,17.43
2022-09-21T21:24:43.687Z,17.45
2022-09-21T21:27:16.415Z,17.44
2022-09-21T21:29:46.776Z,17.42
2022-09-21T21:32:15.573Z,17.45
2022-09-21T21:34:43.898Z,17.43
2022-09-21T21:37:12.878Z,17.43
2022-09-21T21:39:41.568Z,17.42
2022-09-21T21:42:10.048Z,17.42
2022-09-21T21:44:38.514Z,17.40
2022-09-21T21:47:35.110Z,17.42
2022-09-21T21:49:56.808Z,17.40
2022-09-21T21:52:25.233Z,17.40
2022-09-21T21:54:54.997Z,17.42
2022-09-21T21:57:23.221Z,17.45
2022-09-21T21:59:51.372Z,17.40
2022-09-21T22:02:20.951Z,17.44
2022-09-21T22:04:49.235Z,17.41
2022-09-21T22:07:17.251Z,17.39
2022-09-21T22:09:45.392Z,17.38
2022-09-21T22:12:13.565Z,17.36
2022-09-21T22:14:41.675Z,17.35
2022-09-21T22:17:10.157Z,17.31
2022-09-21T22:19:39.684Z,17.32
2022-09-21T22:22:07.943Z,17.34
2022-09-21T22:24:36.242Z,17.37
2022-09-21T22:27:04.451Z,17.36
2022-09-21T22:29:32.717Z,17.40
2022-09-21T22:32:01.117Z,17.37
2022-09-21T22:34:29.438Z,17.36
2022-09-21T22:36:59.576Z,17.37
2022-09-21T22:39:28.994Z,17.37
2022-09-21T22:41:57.389Z,17.37
2022-09-21T22:44:25.686Z,17.38
2022-09-21T22:46:53.829Z,17.38
2022-09-21T22:49:22.510Z,17.36
2022-09-21T22:51:50.976Z,17.40
2022-09-21T22:54:20.626Z,17.40
2022-09-21T22:56:48.999Z,17.34
2022-09-21T22:59:17.285Z,17.32
2022-09-21T23:01:45.969Z,17.32
2022-09-21T23:04:15.171Z,17.35
2022-09-21T23:06:46.059Z,17.37
2022-09-21T23:09:16.069Z,17.37
2022-09-21T23:11:48.083Z,17.36
2022-09-21T23:14:17.423Z,17.38
2022-09-21T23:16:45.897Z,17.34
2022-09-21T23:19:16.511Z,17.35
2022-09-21T23:21:46.753Z,17.37
2022-09-21T23:24:14.893Z,17.38
2022-09-21T23:26:43.450Z,17.34
2022-09-21T23:29:16.912Z,17.35
2022-09-21T23:31:46.419Z,17.35
2022-09-21T23:34:16.864Z,17.33
2022-09-21T23:36:46.107Z,17.37
2022-09-21T23:39:16.215Z,17.37
2022-09-21T23:41:45.146Z,17.40
2022-09-21T23:44:15.096Z,17.42
2022-09-21T23:46:43.942Z,17.39
2022-09-21T23:49:12.322Z,17.40
2022-09-21T23:51:41.453Z,17.45
2022-09-21T23:54:10.058Z,17.43
2022-09-21T23:56:38.560Z,17.41
2022-09-21T23:59:07.235Z,17.35
